Terminal Aerodrome Forecast
Issued by NWS

Home | Current Version | Previous Version | Graphics & Text | Print | Product List | Glossary On
Versions: 1 2 3 4 5 6 7 8 9 10 11 12 13 14
000
FTUS43 KBIS 030300 AAA
TAFDIK
TAF AMD
KDIK 030302Z 0303/0324 34017G24KT P6SM SCT015
     FM030400 34022G32KT P6SM -SN OVC015
     FM031000 32025G35KT P6SM SCT020 BKN035
     FM031800 32017G26KT P6SM SCT035=

USA.gov is the U.S. government's official web portal to all federal, state and local government web resources and services.